sensor_id;sensor_type;location;lat;lon;timestamp;P1;durP1;ratioP1;P2;durP2;ratioP2
80707;SDS011;70222;49.204;-122.940;2023-12-20T00:01:56;10.77;;;6.68;;
80707;SDS011;70222;49.204;-122.940;2023-12-20T00:04:22;9.43;;;6.10;;
80707;SDS011;70222;49.204;-122.940;2023-12-20T00:06:48;12.18;;;7.78;;
80707;SDS011;70222;49.204;-122.940;2023-12-20T00:09:14;8.00;;;5.78;;
80707;SDS011;70222;49.204;-122.940;2023-12-20T00:11:40;10.52;;;6.65;;
80707;SDS011;70222;49.204;-122.940;2023-12-20T00:14:07;10.20;;;7.20;;
80707;SDS011;70222;49.204;-122.940;2023-12-20T00:16:33;10.70;;;6.55;;
80707;SDS011;70222;49.204;-122.940;2023-12-20T00:18:59;9.48;;;6.90;;
80707;SDS011;70222;49.204;-122.940;2023-12-20T00:21:26;13.00;;;9.57;;
80707;SDS011;70222;49.204;-122.940;2023-12-20T00:23:52;9.55;;;7.25;;
80707;SDS011;70222;49.204;-122.940;2023-12-20T00:26:18;9.02;;;6.97;;
80707;SDS011;70222;49.204;-122.940;2023-12-20T00:28:44;7.25;;;5.15;;
80707;SDS011;70222;49.204;-122.940;2023-12-20T00:31:10;5.88;;;4.40;;
80707;SDS011;70222;49.204;-122.940;2023-12-20T00:33:37;4.55;;;3.08;;
80707;SDS011;70222;49.204;-122.940;2023-12-20T00:36:05;4.43;;;3.30;;
80707;SDS011;70222;49.204;-122.940;2023-12-20T00:38:31;4.55;;;3.20;;
80707;SDS011;70222;49.204;-122.940;2023-12-20T00:40:57;4.30;;;2.70;;
80707;SDS011;70222;49.204;-122.940;2023-12-20T00:43:23;5.07;;;2.95;;
80707;SDS011;70222;49.204;-122.940;2023-12-20T00:45:49;4.28;;;2.70;;
80707;SDS011;70222;49.204;-122.940;2023-12-20T00:48:15;4.80;;;2.92;;
80707;SDS011;70222;49.204;-122.940;2023-12-20T00:50:42;4.53;;;2.38;;
80707;SDS011;70222;49.204;-122.940;2023-12-20T00:53:08;3.97;;;2.53;;
80707;SDS011;70222;49.204;-122.940;2023-12-20T00:55:34;3.95;;;2.38;;
80707;SDS011;70222;49.204;-122.940;2023-12-20T00:58:00;2.80;;;2.25;;
80707;SDS011;70222;49.204;-122.940;2023-12-20T01:00:26;3.75;;;2.25;;
80707;SDS011;70222;49.204;-122.940;2023-12-20T01:02:52;5.28;;;2.67;;
80707;SDS011;70222;49.204;-122.940;2023-12-20T01:05:18;4.38;;;2.38;;
80707;SDS011;70222;49.204;-122.940;2023-12-20T01:07:44;3.92;;;2.30;;
80707;SDS011;70222;49.204;-122.940;2023-12-20T01:10:11;4.00;;;2.35;;
80707;SDS011;70222;49.204;-122.940;2023-12-20T01:12:37;3.67;;;1.80;;
80707;SDS011;70222;49.204;-122.940;2023-12-20T01:15:03;3.03;;;1.80;;
80707;SDS011;70222;49.204;-122.940;2023-12-20T01:17:30;2.72;;;1.77;;
80707;SDS011;70222;49.204;-122.940;2023-12-20T01:19:56;4.95;;;2.10;;
80707;SDS011;70222;49.204;-122.940;2023-12-20T01:22:22;3.58;;;2.17;;
80707;SDS011;70222;49.204;-122.940;2023-12-20T01:24:49;3.60;;;1.98;;
80707;SDS011;70222;49.204;-122.940;2023-12-20T01:27:15;3.30;;;2.03;;
80707;SDS011;70222;49.204;-122.940;2023-12-20T01:29:41;3.88;;;2.05;;
80707;SDS011;70222;49.204;-122.940;2023-12-20T01:32:07;2.85;;;2.13;;
80707;SDS011;70222;49.204;-122.940;2023-12-20T01:34:33;3.95;;;2.45;;
80707;SDS011;70222;49.204;-122.940;2023-12-20T01:36:59;2.92;;;1.80;;
80707;SDS011;70222;49.204;-122.940;2023-12-20T01:39:25;4.07;;;1.92;;
80707;SDS011;70222;49.204;-122.940;2023-12-20T01:41:52;3.35;;;2.08;;
80707;SDS011;70222;49.204;-122.940;2023-12-20T01:44:18;3.17;;;1.95;;
80707;SDS011;70222;49.204;-122.940;2023-12-20T01:46:44;3.28;;;2.10;;
80707;SDS011;70222;49.204;-122.940;2023-12-20T01:49:11;4.18;;;2.58;;
80707;SDS011;70222;49.204;-122.940;2023-12-20T01:51:37;4.30;;;2.63;;
80707;SDS011;70222;49.204;-122.940;2023-12-20T01:54:03;3.58;;;2.10;;
80707;SDS011;70222;49.204;-122.940;2023-12-20T01:56:29;4.65;;;2.30;;
80707;SDS011;70222;49.204;-122.940;2023-12-20T01:58:56;3.70;;;2.70;;
80707;SDS011;70222;49.204;-122.940;2023-12-20T02:01:22;4.15;;;2.40;;
80707;SDS011;70222;49.204;-122.940;2023-12-20T02:03:48;4.18;;;2.92;;
80707;SDS011;70222;49.204;-122.940;2023-12-20T02:06:15;4.72;;;2.55;;
80707;SDS011;70222;49.204;-122.940;2023-12-20T02:08:42;4.35;;;2.45;;
80707;SDS011;70222;49.204;-122.940;2023-12-20T02:11:08;4.03;;;2.67;;
80707;SDS011;70222;49.204;-122.940;2023-12-20T02:13:34;5.28;;;2.85;;
80707;SDS011;70222;49.204;-122.940;2023-12-20T02:16:00;3.67;;;2.90;;
80707;SDS011;70222;49.204;-122.940;2023-12-20T02:18:26;4.47;;;2.90;;
80707;SDS011;70222;49.204;-122.940;2023-12-20T02:20:52;4.82;;;2.70;;
80707;SDS011;70222;49.204;-122.940;2023-12-20T02:23:18;3.30;;;2.60;;
80707;SDS011;70222;49.204;-122.940;2023-12-20T02:25:45;4.22;;;2.65;;
80707;SDS011;70222;49.204;-122.940;2023-12-20T02:28:11;4.15;;;2.60;;
80707;SDS011;70222;49.204;-122.940;2023-12-20T02:30:37;4.60;;;2.72;;
80707;SDS011;70222;49.204;-122.940;2023-12-20T02:33:03;4.90;;;2.53;;
80707;SDS011;70222;49.204;-122.940;2023-12-20T02:35:34;3.60;;;2.20;;
80707;SDS011;70222;49.204;-122.940;2023-12-20T02:38:00;4.38;;;2.15;;
80707;SDS011;70222;49.204;-122.940;2023-12-20T02:40:26;3.33;;;2.42;;
80707;SDS011;70222;49.204;-122.940;2023-12-20T02:42:52;4.07;;;2.10;;
80707;SDS011;70222;49.204;-122.940;2023-12-20T02:45:18;4.28;;;2.40;;
80707;SDS011;70222;49.204;-122.940;2023-12-20T02:47:44;3.38;;;2.20;;
80707;SDS011;70222;49.204;-122.940;2023-12-20T02:50:10;3.35;;;2.60;;
80707;SDS011;70222;49.204;-122.940;2023-12-20T02:52:36;4.40;;;2.70;;
80707;SDS011;70222;49.204;-122.940;2023-12-20T02:55:02;4.28;;;2.33;;
80707;SDS011;70222;49.204;-122.940;2023-12-20T02:57:29;4.80;;;2.80;;
80707;SDS011;70222;49.204;-122.940;2023-12-20T02:59:55;3.83;;;2.30;;
80707;SDS011;70222;49.204;-122.940;2023-12-20T03:02:21;4.28;;;2.78;;
80707;SDS011;70222;49.204;-122.940;2023-12-20T03:04:47;4.75;;;3.22;;
80707;SDS011;70222;49.204;-122.940;2023-12-20T03:07:13;5.07;;;2.97;;
80707;SDS011;70222;49.204;-122.940;2023-12-20T03:09:39;4.53;;;2.92;;
80707;SDS011;70222;49.204;-122.940;2023-12-20T03:12:05;5.10;;;2.72;;
80707;SDS011;70222;49.204;-122.940;2023-12-20T03:14:32;4.10;;;2.33;;
80707;SDS011;70222;49.204;-122.940;2023-12-20T03:16:58;5.93;;;2.92;;
80707;SDS011;70222;49.204;-122.940;2023-12-20T03:19:24;3.10;;;2.20;;
80707;SDS011;70222;49.204;-122.940;2023-12-20T03:21:50;6.32;;;2.55;;
80707;SDS011;70222;49.204;-122.940;2023-12-20T03:24:18;3.60;;;2.20;;
80707;SDS011;70222;49.204;-122.940;2023-12-20T03:26:44;4.05;;;2.60;;
80707;SDS011;70222;49.204;-122.940;2023-12-20T03:29:10;2.97;;;2.00;;
80707;SDS011;70222;49.204;-122.940;2023-12-20T03:31:38;3.67;;;2.10;;
80707;SDS011;70222;49.204;-122.940;2023-12-20T03:34:04;3.83;;;2.30;;
80707;SDS011;70222;49.204;-122.940;2023-12-20T03:36:30;4.30;;;2.35;;
80707;SDS011;70222;49.204;-122.940;2023-12-20T03:38:57;4.43;;;2.28;;
80707;SDS011;70222;49.204;-122.940;2023-12-20T03:41:23;3.20;;;2.10;;
80707;SDS011;70222;49.204;-122.940;2023-12-20T03:43:49;3.10;;;1.98;;
80707;SDS011;70222;49.204;-122.940;2023-12-20T03:46:15;3.95;;;2.10;;
80707;SDS011;70222;49.204;-122.940;2023-12-20T03:48:41;4.07;;;2.30;;
80707;SDS011;70222;49.204;-122.940;2023-12-20T03:51:08;4.45;;;2.47;;
80707;SDS011;70222;49.204;-122.940;2023-12-20T03:53:34;4.70;;;2.67;;
80707;SDS011;70222;49.204;-122.940;2023-12-20T03:56:00;3.72;;;2.00;;
80707;SDS011;70222;49.204;-122.940;2023-12-20T03:58:27;3.17;;;2.28;;
80707;SDS011;70222;49.204;-122.940;2023-12-20T04:00:54;2.88;;;1.95;;
80707;SDS011;70222;49.204;-122.940;2023-12-20T04:03:20;2.72;;;1.95;;
80707;SDS011;70222;49.204;-122.940;2023-12-20T04:05:46;2.97;;;2.17;;
80707;SDS011;70222;49.204;-122.940;2023-12-20T04:08:12;2.97;;;2.10;;
80707;SDS011;70222;49.204;-122.940;2023-12-20T04:10:38;3.90;;;2.40;;
80707;SDS011;70222;49.204;-122.940;2023-12-20T04:13:04;3.30;;;2.55;;
80707;SDS011;70222;49.204;-122.940;2023-12-20T04:15:30;4.15;;;2.63;;
80707;SDS011;70222;49.204;-122.940;2023-12-20T04:17:56;3.92;;;2.30;;
80707;SDS011;70222;49.204;-122.940;2023-12-20T04:20:22;3.50;;;2.72;;
80707;SDS011;70222;49.204;-122.940;2023-12-20T04:22:49;3.92;;;2.60;;
80707;SDS011;70222;49.204;-122.940;2023-12-20T04:25:15;4.18;;;2.63;;
80707;SDS011;70222;49.204;-122.940;2023-12-20T04:27:41;3.88;;;2.60;;
80707;SDS011;70222;49.204;-122.940;2023-12-20T04:30:07;4.85;;;3.00;;
80707;SDS011;70222;49.204;-122.940;2023-12-20T04:32:34;3.47;;;2.75;;
80707;SDS011;70222;49.204;-122.940;2023-12-20T04:35:00;4.63;;;2.70;;
80707;SDS011;70222;49.204;-122.940;2023-12-20T04:37:26;5.43;;;2.90;;
80707;SDS011;70222;49.204;-122.940;2023-12-20T04:39:52;4.55;;;2.88;;
80707;SDS011;70222;49.204;-122.940;2023-12-20T04:42:18;3.70;;;2.50;;
80707;SDS011;70222;49.204;-122.940;2023-12-20T04:44:45;4.50;;;2.95;;
80707;SDS011;70222;49.204;-122.940;2023-12-20T04:47:11;4.40;;;3.15;;
80707;SDS011;70222;49.204;-122.940;2023-12-20T04:49:37;4.82;;;3.15;;
80707;SDS011;70222;49.204;-122.940;2023-12-20T04:52:03;4.60;;;3.33;;
80707;SDS011;70222;49.204;-122.940;2023-12-20T04:54:29;4.80;;;3.45;;
80707;SDS011;70222;49.204;-122.940;2023-12-20T04:56:55;4.68;;;3.20;;
80707;SDS011;70222;49.204;-122.940;2023-12-20T04:59:22;4.57;;;3.40;;
80707;SDS011;70222;49.204;-122.940;2023-12-20T05:01:48;4.80;;;3.30;;
80707;SDS011;70222;49.204;-122.940;2023-12-20T05:04:14;3.85;;;3.03;;
80707;SDS011;70222;49.204;-122.940;2023-12-20T05:06:40;5.25;;;3.25;;
80707;SDS011;70222;49.204;-122.940;2023-12-20T05:09:06;5.43;;;3.60;;
80707;SDS011;70222;49.204;-122.940;2023-12-20T05:11:32;5.85;;;3.45;;
80707;SDS011;70222;49.204;-122.940;2023-12-20T05:13:58;5.68;;;3.70;;
80707;SDS011;70222;49.204;-122.940;2023-12-20T05:16:24;5.22;;;3.58;;
80707;SDS011;70222;49.204;-122.940;2023-12-20T05:18:50;5.68;;;3.60;;
80707;SDS011;70222;49.204;-122.940;2023-12-20T05:21:17;4.97;;;3.88;;
80707;SDS011;70222;49.204;-122.940;2023-12-20T05:23:43;6.78;;;3.80;;
80707;SDS011;70222;49.204;-122.940;2023-12-20T05:26:10;5.03;;;3.75;;
80707;SDS011;70222;49.204;-122.940;2023-12-20T05:28:38;5.63;;;3.83;;
80707;SDS011;70222;49.204;-122.940;2023-12-20T05:31:04;5.80;;;4.00;;
80707;SDS011;70222;49.204;-122.940;2023-12-20T05:33:30;6.50;;;4.28;;
80707;SDS011;70222;49.204;-122.940;2023-12-20T05:35:56;7.28;;;4.55;;
80707;SDS011;70222;49.204;-122.940;2023-12-20T05:38:22;6.25;;;4.00;;
80707;SDS011;70222;49.204;-122.940;2023-12-20T05:40:48;8.35;;;4.25;;
80707;SDS011;70222;49.204;-122.940;2023-12-20T05:43:14;5.72;;;4.28;;
80707;SDS011;70222;49.204;-122.940;2023-12-20T05:45:41;6.72;;;4.72;;
80707;SDS011;70222;49.204;-122.940;2023-12-20T05:48:07;6.40;;;4.35;;
80707;SDS011;70222;49.204;-122.940;2023-12-20T05:50:33;7.05;;;4.97;;
80707;SDS011;70222;49.204;-122.940;2023-12-20T05:53:00;6.15;;;4.60;;
80707;SDS011;70222;49.204;-122.940;2023-12-20T05:55:26;7.60;;;4.65;;
80707;SDS011;70222;49.204;-122.940;2023-12-20T05:57:52;7.40;;;5.07;;
80707;SDS011;70222;49.204;-122.940;2023-12-20T06:00:18;6.75;;;5.07;;
80707;SDS011;70222;49.204;-122.940;2023-12-20T06:02:44;7.93;;;5.80;;
80707;SDS011;70222;49.204;-122.940;2023-12-20T06:05:11;6.22;;;4.60;;
80707;SDS011;70222;49.204;-122.940;2023-12-20T06:07:37;5.35;;;3.90;;
80707;SDS011;70222;49.204;-122.940;2023-12-20T06:10:03;5.80;;;4.22;;
80707;SDS011;70222;49.204;-122.940;2023-12-20T06:12:31;6.75;;;4.15;;
80707;SDS011;70222;49.204;-122.940;2023-12-20T06:14:58;6.03;;;4.47;;
80707;SDS011;70222;49.204;-122.940;2023-12-20T06:17:24;5.95;;;3.75;;
80707;SDS011;70222;49.204;-122.940;2023-12-20T06:19:51;6.72;;;4.55;;
80707;SDS011;70222;49.204;-122.940;2023-12-20T06:22:17;5.57;;;3.75;;
80707;SDS011;70222;49.204;-122.940;2023-12-20T06:24:43;7.22;;;4.38;;
80707;SDS011;70222;49.204;-122.940;2023-12-20T06:27:09;5.47;;;3.95;;
80707;SDS011;70222;49.204;-122.940;2023-12-20T06:29:35;5.47;;;3.70;;
80707;SDS011;70222;49.204;-122.940;2023-12-20T06:32:01;5.38;;;3.17;;
80707;SDS011;70222;49.204;-122.940;2023-12-20T06:34:28;5.57;;;3.50;;
80707;SDS011;70222;49.204;-122.940;2023-12-20T06:36:54;4.90;;;3.47;;
80707;SDS011;70222;49.204;-122.940;2023-12-20T06:39:20;6.03;;;3.40;;
80707;SDS011;70222;49.204;-122.940;2023-12-20T06:41:46;5.70;;;3.45;;
80707;SDS011;70222;49.204;-122.940;2023-12-20T06:44:12;5.07;;;3.38;;
80707;SDS011;70222;49.204;-122.940;2023-12-20T06:46:38;5.38;;;3.30;;
80707;SDS011;70222;49.204;-122.940;2023-12-20T06:49:04;7.20;;;4.10;;
80707;SDS011;70222;49.204;-122.940;2023-12-20T06:51:30;4.80;;;3.15;;
80707;SDS011;70222;49.204;-122.940;2023-12-20T06:53:57;4.47;;;3.10;;
80707;SDS011;70222;49.204;-122.940;2023-12-20T06:56:23;6.82;;;3.83;;
80707;SDS011;70222;49.204;-122.940;2023-12-20T06:58:49;4.68;;;3.40;;
80707;SDS011;70222;49.204;-122.940;2023-12-20T07:01:15;5.78;;;3.28;;
80707;SDS011;70222;49.204;-122.940;2023-12-20T07:03:42;6.85;;;3.72;;
80707;SDS011;70222;49.204;-122.940;2023-12-20T07:06:08;5.78;;;3.25;;
80707;SDS011;70222;49.204;-122.940;2023-12-20T07:08:34;5.13;;;3.13;;
80707;SDS011;70222;49.204;-122.940;2023-12-20T07:11:01;4.70;;;3.40;;
80707;SDS011;70222;49.204;-122.940;2023-12-20T07:13:27;5.38;;;3.67;;
80707;SDS011;70222;49.204;-122.940;2023-12-20T07:15:53;5.65;;;3.95;;
80707;SDS011;70222;49.204;-122.940;2023-12-20T07:18:21;5.80;;;3.47;;
80707;SDS011;70222;49.204;-122.940;2023-12-20T07:20:47;5.57;;;4.05;;
80707;SDS011;70222;49.204;-122.940;2023-12-20T07:23:13;6.57;;;4.00;;
80707;SDS011;70222;49.204;-122.940;2023-12-20T07:25:39;6.07;;;4.50;;
80707;SDS011;70222;49.204;-122.940;2023-12-20T07:28:05;8.43;;;4.63;;
80707;SDS011;70222;49.204;-122.940;2023-12-20T07:30:31;6.25;;;4.10;;
80707;SDS011;70222;49.204;-122.940;2023-12-20T07:32:57;6.20;;;3.95;;
80707;SDS011;70222;49.204;-122.940;2023-12-20T07:35:23;7.63;;;3.78;;
80707;SDS011;70222;49.204;-122.940;2023-12-20T07:37:50;7.00;;;4.18;;
80707;SDS011;70222;49.204;-122.940;2023-12-20T07:40:16;6.30;;;4.45;;
80707;SDS011;70222;49.204;-122.940;2023-12-20T07:42:42;6.97;;;4.65;;
80707;SDS011;70222;49.204;-122.940;2023-12-20T07:45:08;6.40;;;4.85;;
80707;SDS011;70222;49.204;-122.940;2023-12-20T07:47:36;6.05;;;4.47;;
80707;SDS011;70222;49.204;-122.940;2023-12-20T07:50:02;6.28;;;4.13;;
80707;SDS011;70222;49.204;-122.940;2023-12-20T07:52:31;6.97;;;4.40;;
80707;SDS011;70222;49.204;-122.940;2023-12-20T07:54:57;7.32;;;4.63;;
80707;SDS011;70222;49.204;-122.940;2023-12-20T07:57:23;6.28;;;4.30;;
80707;SDS011;70222;49.204;-122.940;2023-12-20T07:59:50;8.20;;;4.28;;
80707;SDS011;70222;49.204;-122.940;2023-12-20T08:02:16;6.72;;;4.32;;
80707;SDS011;70222;49.204;-122.940;2023-12-20T08:04:42;6.57;;;4.28;;
80707;SDS011;70222;49.204;-122.940;2023-12-20T08:07:08;6.35;;;4.20;;
80707;SDS011;70222;49.204;-122.940;2023-12-20T08:09:34;7.20;;;4.25;;
80707;SDS011;70222;49.204;-122.940;2023-12-20T08:12:02;5.35;;;3.60;;
80707;SDS011;70222;49.204;-122.940;2023-12-20T08:14:28;5.22;;;3.33;;
80707;SDS011;70222;49.204;-122.940;2023-12-20T08:16:54;6.10;;;3.97;;
80707;SDS011;70222;49.204;-122.940;2023-12-20T08:19:20;5.75;;;4.07;;
80707;SDS011;70222;49.204;-122.940;2023-12-20T08:21:46;6.95;;;4.05;;
80707;SDS011;70222;49.204;-122.940;2023-12-20T08:24:12;5.80;;;4.47;;
80707;SDS011;70222;49.204;-122.940;2023-12-20T08:26:38;7.70;;;4.50;;
80707;SDS011;70222;49.204;-122.940;2023-12-20T08:29:04;6.28;;;4.13;;
80707;SDS011;70222;49.204;-122.940;2023-12-20T08:31:31;6.10;;;4.28;;
80707;SDS011;70222;49.204;-122.940;2023-12-20T08:33:57;6.82;;;3.97;;
80707;SDS011;70222;49.204;-122.940;2023-12-20T08:36:24;7.93;;;4.50;;
80707;SDS011;70222;49.204;-122.940;2023-12-20T08:38:50;6.72;;;4.28;;
80707;SDS011;70222;49.204;-122.940;2023-12-20T08:41:16;8.82;;;4.40;;
80707;SDS011;70222;49.204;-122.940;2023-12-20T08:43:43;6.95;;;4.32;;
80707;SDS011;70222;49.204;-122.940;2023-12-20T08:46:09;8.23;;;4.55;;
80707;SDS011;70222;49.204;-122.940;2023-12-20T08:48:35;6.88;;;4.22;;
80707;SDS011;70222;49.204;-122.940;2023-12-20T08:51:02;6.53;;;4.70;;
80707;SDS011;70222;49.204;-122.940;2023-12-20T08:53:29;8.50;;;4.22;;
80707;SDS011;70222;49.204;-122.940;2023-12-20T08:55:55;6.97;;;4.45;;
80707;SDS011;70222;49.204;-122.940;2023-12-20T08:58:26;7.72;;;4.40;;
80707;SDS011;70222;49.204;-122.940;2023-12-20T09:00:53;6.95;;;4.20;;
80707;SDS011;70222;49.204;-122.940;2023-12-20T09:03:19;7.32;;;4.43;;
80707;SDS011;70222;49.204;-122.940;2023-12-20T09:05:45;7.68;;;5.15;;
80707;SDS011;70222;49.204;-122.940;2023-12-20T09:08:11;7.45;;;4.18;;
80707;SDS011;70222;49.204;-122.940;2023-12-20T09:10:37;5.90;;;3.90;;
80707;SDS011;70222;49.204;-122.940;2023-12-20T09:13:03;6.63;;;4.47;;
80707;SDS011;70222;49.204;-122.940;2023-12-20T09:15:29;7.00;;;4.93;;
80707;SDS011;70222;49.204;-122.940;2023-12-20T09:17:56;8.68;;;4.43;;
80707;SDS011;70222;49.204;-122.940;2023-12-20T09:20:22;7.28;;;4.25;;
80707;SDS011;70222;49.204;-122.940;2023-12-20T09:22:48;7.63;;;4.72;;
80707;SDS011;70222;49.204;-122.940;2023-12-20T09:25:15;8.35;;;4.50;;
80707;SDS011;70222;49.204;-122.940;2023-12-20T09:27:43;7.50;;;4.57;;
80707;SDS011;70222;49.204;-122.940;2023-12-20T09:30:09;6.38;;;4.18;;
80707;SDS011;70222;49.204;-122.940;2023-12-20T09:32:35;6.90;;;4.18;;
80707;SDS011;70222;49.204;-122.940;2023-12-20T09:35:02;5.85;;;3.78;;
80707;SDS011;70222;49.204;-122.940;2023-12-20T09:37:30;4.88;;;4.10;;
80707;SDS011;70222;49.204;-122.940;2023-12-20T09:39:56;7.78;;;3.92;;
80707;SDS011;70222;49.204;-122.940;2023-12-20T09:42:29;6.25;;;3.40;;
80707;SDS011;70222;49.204;-122.940;2023-12-20T09:45:00;7.57;;;4.05;;
80707;SDS011;70222;49.204;-122.940;2023-12-20T09:47:28;6.80;;;4.20;;
80707;SDS011;70222;49.204;-122.940;2023-12-20T09:49:55;8.20;;;4.45;;
80707;SDS011;70222;49.204;-122.940;2023-12-20T09:52:22;6.18;;;3.65;;
80707;SDS011;70222;49.204;-122.940;2023-12-20T09:54:49;7.15;;;4.25;;
80707;SDS011;70222;49.204;-122.940;2023-12-20T09:57:20;9.15;;;5.05;;
80707;SDS011;70222;49.204;-122.940;2023-12-20T09:59:46;8.57;;;4.65;;
80707;SDS011;70222;49.204;-122.940;2023-12-20T10:02:12;7.78;;;4.35;;
80707;SDS011;70222;49.204;-122.940;2023-12-20T10:04:48;7.82;;;4.28;;
80707;SDS011;70222;49.204;-122.940;2023-12-20T10:07:14;6.65;;;3.83;;
80707;SDS011;70222;49.204;-122.940;2023-12-20T10:09:41;8.63;;;4.32;;
80707;SDS011;70222;49.204;-122.940;2023-12-20T10:12:07;9.07;;;4.47;;
80707;SDS011;70222;49.204;-122.940;2023-12-20T10:14:33;6.95;;;4.38;;
80707;SDS011;70222;49.204;-122.940;2023-12-20T10:17:03;9.18;;;4.63;;
80707;SDS011;70222;49.204;-122.940;2023-12-20T10:19:30;11.48;;;5.40;;
80707;SDS011;70222;49.204;-122.940;2023-12-20T10:21:57;11.13;;;5.75;;
80707;SDS011;70222;49.204;-122.940;2023-12-20T10:24:30;8.68;;;5.07;;
80707;SDS011;70222;49.204;-122.940;2023-12-20T10:27:07;10.35;;;6.13;;
80707;SDS011;70222;49.204;-122.940;2023-12-20T10:29:34;9.30;;;5.65;;
80707;SDS011;70222;49.204;-122.940;2023-12-20T10:34:49;9.25;;;4.75;;
80707;SDS011;70222;49.204;-122.940;2023-12-20T10:37:16;10.85;;;5.43;;
80707;SDS011;70222;49.204;-122.940;2023-12-20T10:39:43;9.00;;;4.75;;
80707;SDS011;70222;49.204;-122.940;2023-12-20T10:42:12;9.77;;;5.05;;
80707;SDS011;70222;49.204;-122.940;2023-12-20T10:44:39;10.02;;;5.18;;
80707;SDS011;70222;49.204;-122.940;2023-12-20T10:47:05;8.90;;;4.95;;
80707;SDS011;70222;49.204;-122.940;2023-12-20T10:49:32;10.10;;;5.30;;
80707;SDS011;70222;49.204;-122.940;2023-12-20T10:52:02;9.15;;;4.22;;
80707;SDS011;70222;49.204;-122.940;2023-12-20T10:54:29;9.13;;;4.95;;
80707;SDS011;70222;49.204;-122.940;2023-12-20T10:56:58;9.20;;;4.95;;
80707;SDS011;70222;49.204;-122.940;2023-12-20T10:59:24;7.70;;;4.75;;
80707;SDS011;70222;49.204;-122.940;2023-12-20T11:01:51;7.30;;;4.47;;
80707;SDS011;70222;49.204;-122.940;2023-12-20T11:04:25;8.43;;;4.40;;
80707;SDS011;70222;49.204;-122.940;2023-12-20T11:07:04;8.63;;;4.05;;
80707;SDS011;70222;49.204;-122.940;2023-12-20T11:09:43;10.82;;;4.40;;
80707;SDS011;70222;49.204;-122.940;2023-12-20T11:12:48;7.68;;;4.53;;
80707;SDS011;70222;49.204;-122.940;2023-12-20T11:15:13;9.18;;;4.95;;
80707;SDS011;70222;49.204;-122.940;2023-12-20T11:17:40;8.82;;;4.82;;
80707;SDS011;70222;49.204;-122.940;2023-12-20T11:20:07;7.88;;;4.35;;
80707;SDS011;70222;49.204;-122.940;2023-12-20T11:22:36;6.95;;;4.18;;
80707;SDS011;70222;49.204;-122.940;2023-12-20T11:25:09;8.20;;;4.57;;
80707;SDS011;70222;49.204;-122.940;2023-12-20T11:30:11;5.97;;;3.60;;
80707;SDS011;70222;49.204;-122.940;2023-12-20T11:32:37;6.45;;;3.88;;
80707;SDS011;70222;49.204;-122.940;2023-12-20T11:37:36;5.38;;;3.25;;
80707;SDS011;70222;49.204;-122.940;2023-12-20T11:40:06;5.22;;;3.15;;
80707;SDS011;70222;49.204;-122.940;2023-12-20T11:42:39;6.15;;;3.70;;
80707;SDS011;70222;49.204;-122.940;2023-12-20T11:45:09;5.80;;;3.83;;
80707;SDS011;70222;49.204;-122.940;2023-12-20T11:47:36;5.63;;;3.97;;
80707;SDS011;70222;49.204;-122.940;2023-12-20T11:50:02;5.25;;;3.53;;
80707;SDS011;70222;49.204;-122.940;2023-12-20T11:52:30;6.25;;;4.00;;
80707;SDS011;70222;49.204;-122.940;2023-12-20T11:54:57;6.15;;;3.70;;
80707;SDS011;70222;49.204;-122.940;2023-12-20T11:57:23;5.63;;;3.58;;
80707;SDS011;70222;49.204;-122.940;2023-12-20T11:59:49;6.80;;;3.70;;
80707;SDS011;70222;49.204;-122.940;2023-12-20T12:02:15;7.35;;;4.07;;
80707;SDS011;70222;49.204;-122.940;2023-12-20T12:04:41;6.68;;;3.75;;
80707;SDS011;70222;49.204;-122.940;2023-12-20T12:07:07;4.75;;;3.28;;
80707;SDS011;70222;49.204;-122.940;2023-12-20T12:09:34;6.60;;;3.60;;
80707;SDS011;70222;49.204;-122.940;2023-12-20T12:12:00;6.85;;;4.25;;
80707;SDS011;70222;49.204;-122.940;2023-12-20T12:14:27;7.00;;;3.63;;
80707;SDS011;70222;49.204;-122.940;2023-12-20T12:16:53;6.22;;;4.40;;
80707;SDS011;70222;49.204;-122.940;2023-12-20T12:19:20;7.32;;;4.28;;
80707;SDS011;70222;49.204;-122.940;2023-12-20T12:22:11;6.90;;;4.22;;
80707;SDS011;70222;49.204;-122.940;2023-12-20T12:24:38;6.05;;;3.75;;
80707;SDS011;70222;49.204;-122.940;2023-12-20T12:27:14;6.03;;;3.90;;
80707;SDS011;70222;49.204;-122.940;2023-12-20T12:29:41;7.15;;;4.10;;
80707;SDS011;70222;49.204;-122.940;2023-12-20T12:32:27;8.70;;;3.90;;
80707;SDS011;70222;49.204;-122.940;2023-12-20T12:34:54;6.10;;;3.78;;
80707;SDS011;70222;49.204;-122.940;2023-12-20T12:37:20;7.22;;;4.18;;
80707;SDS011;70222;49.204;-122.940;2023-12-20T12:39:46;6.30;;;4.07;;
80707;SDS011;70222;49.204;-122.940;2023-12-20T12:42:14;5.88;;;3.53;;
80707;SDS011;70222;49.204;-122.940;2023-12-20T12:44:40;6.70;;;3.85;;
80707;SDS011;70222;49.204;-122.940;2023-12-20T12:47:06;5.60;;;3.80;;
80707;SDS011;70222;49.204;-122.940;2023-12-20T12:49:33;6.82;;;4.22;;
80707;SDS011;70222;49.204;-122.940;2023-12-20T12:51:59;5.78;;;3.38;;
80707;SDS011;70222;49.204;-122.940;2023-12-20T12:54:25;6.35;;;4.25;;
80707;SDS011;70222;49.204;-122.940;2023-12-20T12:56:51;5.50;;;3.85;;
80707;SDS011;70222;49.204;-122.940;2023-12-20T12:59:18;5.97;;;4.22;;
80707;SDS011;70222;49.204;-122.940;2023-12-20T13:01:44;7.85;;;4.55;;
80707;SDS011;70222;49.204;-122.940;2023-12-20T13:04:10;8.32;;;3.70;;
80707;SDS011;70222;49.204;-122.940;2023-12-20T13:06:37;8.65;;;3.83;;
80707;SDS011;70222;49.204;-122.940;2023-12-20T13:09:03;7.20;;;4.07;;
80707;SDS011;70222;49.204;-122.940;2023-12-20T13:11:34;9.98;;;3.80;;
80707;SDS011;70222;49.204;-122.940;2023-12-20T13:14:01;6.43;;;4.22;;
80707;SDS011;70222;49.204;-122.940;2023-12-20T13:16:29;6.28;;;4.00;;
80707;SDS011;70222;49.204;-122.940;2023-12-20T13:18:55;7.68;;;4.25;;
80707;SDS011;70222;49.204;-122.940;2023-12-20T13:21:21;6.72;;;4.35;;
80707;SDS011;70222;49.204;-122.940;2023-12-20T13:23:47;7.80;;;3.97;;
80707;SDS011;70222;49.204;-122.940;2023-12-20T13:26:14;6.25;;;4.25;;
80707;SDS011;70222;49.204;-122.940;2023-12-20T13:28:40;5.97;;;3.85;;
80707;SDS011;70222;49.204;-122.940;2023-12-20T13:31:06;6.28;;;4.00;;
80707;SDS011;70222;49.204;-122.940;2023-12-20T13:33:32;6.03;;;3.97;;
80707;SDS011;70222;49.204;-122.940;2023-12-20T13:35:58;6.72;;;4.13;;
80707;SDS011;70222;49.204;-122.940;2023-12-20T13:38:25;6.80;;;3.90;;
80707;SDS011;70222;49.204;-122.940;2023-12-20T13:40:51;6.78;;;4.55;;
80707;SDS011;70222;49.204;-122.940;2023-12-20T13:43:17;7.22;;;4.82;;
80707;SDS011;70222;49.204;-122.940;2023-12-20T13:45:46;7.45;;;4.18;;
80707;SDS011;70222;49.204;-122.940;2023-12-20T13:48:13;7.43;;;5.35;;
80707;SDS011;70222;49.204;-122.940;2023-12-20T13:50:39;9.18;;;4.68;;
80707;SDS011;70222;49.204;-122.940;2023-12-20T13:53:05;7.07;;;4.60;;
80707;SDS011;70222;49.204;-122.940;2023-12-20T13:55:31;7.20;;;5.05;;
80707;SDS011;70222;49.204;-122.940;2023-12-20T13:57:57;7.97;;;5.10;;
80707;SDS011;70222;49.204;-122.940;2023-12-20T14:00:23;7.78;;;4.72;;
80707;SDS011;70222;49.204;-122.940;2023-12-20T14:02:50;7.20;;;4.60;;
80707;SDS011;70222;49.204;-122.940;2023-12-20T14:05:16;11.23;;;4.70;;
80707;SDS011;70222;49.204;-122.940;2023-12-20T14:07:45;7.88;;;4.55;;
80707;SDS011;70222;49.204;-122.940;2023-12-20T14:10:12;6.63;;;4.60;;
80707;SDS011;70222;49.204;-122.940;2023-12-20T14:12:39;8.80;;;5.35;;
80707;SDS011;70222;49.204;-122.940;2023-12-20T14:15:06;8.82;;;5.70;;